Zielona Gora, Poland
Current Conditions -  °F | °C
As of 2:00 PM on Saturday 20 Dec 2014 (Local Time) from EPZG Reporting Station
Overcast Overcast  
Wind Chill: 35°   Ceiling: 3800
Heat Index: 45°   Visibility: 6mi
Dew Point: 34°   Wind: 25mph
Humidity: 66%   Direction: 230°SW
Pressure: 29.8"   Gusts: NA
Location:  51.94°N, 15.49°E
Report Text: EPZG 201200Z 23022KT 9999 OVC038 07/01 Q1009
Loading
Personal Weather Stations






























Interactive Weather Map New forecast layout! Learn more

10-Day Weather Forecast

Advertisements
Track Severe Weather on mobile